sensor_id;sensor_type;location;lat;lon;timestamp;temperature;humidity
79024;DHT22;70306;44.764;37.688;2024-03-22T00:01:24;7.31;76.19
79024;DHT22;70306;44.764;37.688;2024-03-22T00:02:46;7.30;76.13
79024;DHT22;70306;44.764;37.688;2024-03-22T00:03:48;7.31;76.24
79024;DHT22;70306;44.764;37.688;2024-03-22T00:04:50;7.40;76.70
79024;DHT22;70306;44.764;37.688;2024-03-22T00:05:53;7.43;76.43
79024;DHT22;70306;44.764;37.688;2024-03-22T00:07:00;7.43;75.96
79024;DHT22;70306;44.764;37.688;2024-03-22T00:08:02;7.41;75.86
79024;DHT22;70306;44.764;37.688;2024-03-22T00:09:05;7.38;75.42
79024;DHT22;70306;44.764;37.688;2024-03-22T00:10:07;7.37;75.56
79024;DHT22;70306;44.764;37.688;2024-03-22T00:11:09;7.31;75.60
79024;DHT22;70306;44.764;37.688;2024-03-22T00:12:12;7.28;76.43
79024;DHT22;70306;44.764;37.688;2024-03-22T00:13:15;7.34;75.52
79024;DHT22;70306;44.764;37.688;2024-03-22T00:14:17;7.30;75.56
79024;DHT22;70306;44.764;37.688;2024-03-22T00:15:20;7.27;75.78
79024;DHT22;70306;44.764;37.688;2024-03-22T00:16:50;7.31;75.68
79024;DHT22;70306;44.764;37.688;2024-03-22T00:17:52;7.27;75.58
79024;DHT22;70306;44.764;37.688;2024-03-22T00:18:57;7.19;75.41
79024;DHT22;70306;44.764;37.688;2024-03-22T00:20:01;7.16;76.17
79024;DHT22;70306;44.764;37.688;2024-03-22T00:21:05;7.13;75.75
79024;DHT22;70306;44.764;37.688;2024-03-22T00:22:07;7.10;75.93
79024;DHT22;70306;44.764;37.688;2024-03-22T00:23:13;7.10;76.01
79024;DHT22;70306;44.764;37.688;2024-03-22T00:24:15;7.10;76.01
79024;DHT22;70306;44.764;37.688;2024-03-22T00:25:18;7.13;76.27
79024;DHT22;70306;44.764;37.688;2024-03-22T00:26:41;7.16;76.53
79024;DHT22;70306;44.764;37.688;2024-03-22T00:27:50;7.23;76.22
79024;DHT22;70306;44.764;37.688;2024-03-22T00:28:54;7.22;75.88
79024;DHT22;70306;44.764;37.688;2024-03-22T00:29:57;7.20;75.83
79024;DHT22;70306;44.764;37.688;2024-03-22T00:30:59;7.17;75.69
79024;DHT22;70306;44.764;37.688;2024-03-22T00:32:01;7.13;75.50
79024;DHT22;70306;44.764;37.688;2024-03-22T00:33:04;7.12;75.64
79024;DHT22;70306;44.764;37.688;2024-03-22T00:34:06;7.02;75.80
79024;DHT22;70306;44.764;37.688;2024-03-22T00:35:08;7.03;75.87
79024;DHT22;70306;44.764;37.688;2024-03-22T00:36:11;7.00;76.01
79024;DHT22;70306;44.764;37.688;2024-03-22T00:37:13;6.98;76.56
79024;DHT22;70306;44.764;37.688;2024-03-22T00:38:15;7.02;76.75
79024;DHT22;70306;44.764;37.688;2024-03-22T00:39:37;7.09;76.54
79024;DHT22;70306;44.764;37.688;2024-03-22T00:40:39;7.09;76.31
79024;DHT22;70306;44.764;37.688;2024-03-22T00:41:41;7.08;76.17
79024;DHT22;70306;44.764;37.688;2024-03-22T00:42:43;7.06;76.35
79024;DHT22;70306;44.764;37.688;2024-03-22T00:45:03;7.09;76.13
79024;DHT22;70306;44.764;37.688;2024-03-22T00:46:05;7.09;76.15
79024;DHT22;70306;44.764;37.688;2024-03-22T00:47:17;7.16;76.16
79024;DHT22;70306;44.764;37.688;2024-03-22T00:48:19;7.19;75.69
79024;DHT22;70306;44.764;37.688;2024-03-22T00:49:21;7.16;75.43
79024;DHT22;70306;44.764;37.688;2024-03-22T00:50:24;7.15;75.47
79024;DHT22;70306;44.764;37.688;2024-03-22T00:51:26;7.08;75.34
79024;DHT22;70306;44.764;37.688;2024-03-22T00:52:28;7.02;75.36
79024;DHT22;70306;44.764;37.688;2024-03-22T00:53:30;7.03;75.33
79024;DHT22;70306;44.764;37.688;2024-03-22T00:54:32;7.03;75.41
79024;DHT22;70306;44.764;37.688;2024-03-22T00:55:35;6.98;75.32
79024;DHT22;70306;44.764;37.688;2024-03-22T00:56:36;6.92;75.49
79024;DHT22;70306;44.764;37.688;2024-03-22T00:57:40;6.89;75.60
79024;DHT22;70306;44.764;37.688;2024-03-22T00:58:42;6.87;76.14
79024;DHT22;70306;44.764;37.688;2024-03-22T01:00:06;6.93;75.81
79024;DHT22;70306;44.764;37.688;2024-03-22T01:01:08;6.96;75.35
79024;DHT22;70306;44.764;37.688;2024-03-22T01:02:31;6.85;75.62
79024;DHT22;70306;44.764;37.688;2024-03-22T01:03:33;6.82;76.03
79024;DHT22;70306;44.764;37.688;2024-03-22T01:04:35;6.80;75.96
79024;DHT22;70306;44.764;37.688;2024-03-22T01:05:37;6.77;75.42
79024;DHT22;70306;44.764;37.688;2024-03-22T01:06:39;6.71;75.75
79024;DHT22;70306;44.764;37.688;2024-03-22T01:07:41;6.70;75.69
79024;DHT22;70306;44.764;37.688;2024-03-22T01:08:43;6.65;75.93
79024;DHT22;70306;44.764;37.688;2024-03-22T01:09:46;6.67;75.97
79024;DHT22;70306;44.764;37.688;2024-03-22T01:10:48;6.63;76.28
79024;DHT22;70306;44.764;37.688;2024-03-22T01:11:51;6.61;76.11
79024;DHT22;70306;44.764;37.688;2024-03-22T01:12:53;6.60;76.07
79024;DHT22;70306;44.764;37.688;2024-03-22T01:13:56;6.57;75.88
79024;DHT22;70306;44.764;37.688;2024-03-22T01:14:58;6.51;76.02
79024;DHT22;70306;44.764;37.688;2024-03-22T01:16:20;6.48;76.25
79024;DHT22;70306;44.764;37.688;2024-03-22T01:17:22;6.47;76.48
79024;DHT22;70306;44.764;37.688;2024-03-22T01:18:24;6.50;76.66
79024;DHT22;70306;44.764;37.688;2024-03-22T01:19:27;6.50;76.46
79024;DHT22;70306;44.764;37.688;2024-03-22T01:20:29;6.48;76.02
79024;DHT22;70306;44.764;37.688;2024-03-22T01:21:31;6.48;76.44
79024;DHT22;70306;44.764;37.688;2024-03-22T01:22:33;6.47;76.06
79024;DHT22;70306;44.764;37.688;2024-03-22T01:23:35;6.47;76.17
79024;DHT22;70306;44.764;37.688;2024-03-22T01:24:38;6.48;76.28
79024;DHT22;70306;44.764;37.688;2024-03-22T01:25:40;6.44;76.32
79024;DHT22;70306;44.764;37.688;2024-03-22T01:26:42;6.48;76.21
79024;DHT22;70306;44.764;37.688;2024-03-22T01:27:44;6.47;75.82
79024;DHT22;70306;44.764;37.688;2024-03-22T01:28:46;6.44;75.86
79024;DHT22;70306;44.764;37.688;2024-03-22T01:29:49;6.44;76.33
79024;DHT22;70306;44.764;37.688;2024-03-22T01:30:51;6.46;75.93
79024;DHT22;70306;44.764;37.688;2024-03-22T01:31:54;6.37;75.98
79024;DHT22;70306;44.764;37.688;2024-03-22T01:32:56;6.30;76.36
79024;DHT22;70306;44.764;37.688;2024-03-22T01:33:58;6.32;76.49
79024;DHT22;70306;44.764;37.688;2024-03-22T01:35:00;6.29;76.19
79024;DHT22;70306;44.764;37.688;2024-03-22T01:36:02;6.25;76.28
79024;DHT22;70306;44.764;37.688;2024-03-22T01:37:27;6.25;76.63
79024;DHT22;70306;44.764;37.688;2024-03-22T01:38:29;6.32;76.09
79024;DHT22;70306;44.764;37.688;2024-03-22T01:39:35;6.29;76.18
79024;DHT22;70306;44.764;37.688;2024-03-22T01:40:37;6.28;76.46
79024;DHT22;70306;44.764;37.688;2024-03-22T01:41:59;6.22;76.41
79024;DHT22;70306;44.764;37.688;2024-03-22T01:43:01;6.23;76.75
79024;DHT22;70306;44.764;37.688;2024-03-22T01:44:03;6.19;76.06
79024;DHT22;70306;44.764;37.688;2024-03-22T01:45:06;6.18;76.09
79024;DHT22;70306;44.764;37.688;2024-03-22T01:46:08;6.16;76.32
79024;DHT22;70306;44.764;37.688;2024-03-22T01:47:30;6.13;76.12
79024;DHT22;70306;44.764;37.688;2024-03-22T01:48:53;6.06;76.16
79024;DHT22;70306;44.764;37.688;2024-03-22T01:49:56;6.01;76.36
79024;DHT22;70306;44.764;37.688;2024-03-22T01:50:58;5.98;76.51
79024;DHT22;70306;44.764;37.688;2024-03-22T01:52:35;5.90;76.55
79024;DHT22;70306;44.764;37.688;2024-03-22T01:53:38;5.85;77.03
79024;DHT22;70306;44.764;37.688;2024-03-22T01:54:41;5.84;76.71
79024;DHT22;70306;44.764;37.688;2024-03-22T01:55:43;5.79;76.86
79024;DHT22;70306;44.764;37.688;2024-03-22T01:56:45;5.77;77.13
79024;DHT22;70306;44.764;37.688;2024-03-22T01:58:30;5.81;76.97
79024;DHT22;70306;44.764;37.688;2024-03-22T01:59:34;5.75;76.70
79024;DHT22;70306;44.764;37.688;2024-03-22T02:00:56;5.68;77.78
79024;DHT22;70306;44.764;37.688;2024-03-22T02:01:58;5.66;76.88
79024;DHT22;70306;44.764;37.688;2024-03-22T02:03:04;5.63;76.89
79024;DHT22;70306;44.764;37.688;2024-03-22T02:04:07;5.60;77.37
79024;DHT22;70306;44.764;37.688;2024-03-22T02:05:16;5.57;77.57
79024;DHT22;70306;44.764;37.688;2024-03-22T02:06:21;5.56;77.15
79024;DHT22;70306;44.764;37.688;2024-03-22T02:07:23;5.53;77.20
79024;DHT22;70306;44.764;37.688;2024-03-22T02:08:25;5.49;77.06
79024;DHT22;70306;44.764;37.688;2024-03-22T02:09:27;5.43;77.22
79024;DHT22;70306;44.764;37.688;2024-03-22T02:10:29;5.42;77.50
79024;DHT22;70306;44.764;37.688;2024-03-22T02:11:32;5.42;77.50
79024;DHT22;70306;44.764;37.688;2024-03-22T02:12:34;5.40;77.29
79024;DHT22;70306;44.764;37.688;2024-03-22T02:13:36;5.39;77.47
79024;DHT22;70306;44.764;37.688;2024-03-22T02:14:38;5.38;77.46
79024;DHT22;70306;44.764;37.688;2024-03-22T02:15:40;5.38;77.63
79024;DHT22;70306;44.764;37.688;2024-03-22T02:16:42;5.40;77.41
79024;DHT22;70306;44.764;37.688;2024-03-22T02:17:46;5.40;77.43
79024;DHT22;70306;44.764;37.688;2024-03-22T02:18:49;5.35;77.63
79024;DHT22;70306;44.764;37.688;2024-03-22T02:19:52;5.32;77.38
79024;DHT22;70306;44.764;37.688;2024-03-22T02:21:16;5.32;77.50
79024;DHT22;70306;44.764;37.688;2024-03-22T02:23:00;5.29;77.52
79024;DHT22;70306;44.764;37.688;2024-03-22T02:24:02;5.25;77.73
79024;DHT22;70306;44.764;37.688;2024-03-22T02:25:05;5.23;78.09
79024;DHT22;70306;44.764;37.688;2024-03-22T02:26:09;5.25;77.96
79024;DHT22;70306;44.764;37.688;2024-03-22T02:27:12;5.26;77.77
79024;DHT22;70306;44.764;37.688;2024-03-22T02:28:14;5.35;78.21
79024;DHT22;70306;44.764;37.688;2024-03-22T02:29:19;5.36;77.44
79024;DHT22;70306;44.764;37.688;2024-03-22T02:30:21;5.36;78.16
79024;DHT22;70306;44.764;37.688;2024-03-22T02:31:23;5.40;77.64
79024;DHT22;70306;44.764;37.688;2024-03-22T02:32:27;5.39;77.37
79024;DHT22;70306;44.764;37.688;2024-03-22T02:33:29;5.33;76.90
79024;DHT22;70306;44.764;37.688;2024-03-22T02:36:17;5.32;77.31
79024;DHT22;70306;44.764;37.688;2024-03-22T02:37:19;5.31;77.11
79024;DHT22;70306;44.764;37.688;2024-03-22T02:38:22;5.32;77.63
79024;DHT22;70306;44.764;37.688;2024-03-22T02:39:24;5.35;77.37
79024;DHT22;70306;44.764;37.688;2024-03-22T02:40:27;5.39;77.20
79024;DHT22;70306;44.764;37.688;2024-03-22T02:41:49;5.32;76.85
79024;DHT22;70306;44.764;37.688;2024-03-22T02:43:12;5.36;77.40
79024;DHT22;70306;44.764;37.688;2024-03-22T02:44:35;5.38;76.88
79024;DHT22;70306;44.764;37.688;2024-03-22T02:45:40;5.40;76.93
79024;DHT22;70306;44.764;37.688;2024-03-22T02:46:42;5.46;77.02
79024;DHT22;70306;44.764;37.688;2024-03-22T02:49:20;5.53;76.40
79024;DHT22;70306;44.764;37.688;2024-03-22T02:50:23;5.58;76.98
79024;DHT22;70306;44.764;37.688;2024-03-22T02:51:25;5.67;76.62
79024;DHT22;70306;44.764;37.688;2024-03-22T02:52:27;5.73;76.17
79024;DHT22;70306;44.764;37.688;2024-03-22T02:53:29;5.78;76.50
79024;DHT22;70306;44.764;37.688;2024-03-22T02:54:31;5.88;76.31
79024;DHT22;70306;44.764;37.688;2024-03-22T02:55:39;5.97;76.40
79024;DHT22;70306;44.764;37.688;2024-03-22T02:56:42;6.01;75.37
79024;DHT22;70306;44.764;37.688;2024-03-22T02:57:44;6.03;75.23
79024;DHT22;70306;44.764;37.688;2024-03-22T02:58:46;6.12;75.09
79024;DHT22;70306;44.764;37.688;2024-03-22T02:59:48;6.13;74.43
79024;DHT22;70306;44.764;37.688;2024-03-22T03:01:11;6.11;74.67
79024;DHT22;70306;44.764;37.688;2024-03-22T03:02:13;6.15;74.90
79024;DHT22;70306;44.764;37.688;2024-03-22T03:03:24;6.15;74.28
79024;DHT22;70306;44.764;37.688;2024-03-22T03:04:26;6.08;74.08
79024;DHT22;70306;44.764;37.688;2024-03-22T03:05:28;6.02;74.31
79024;DHT22;70306;44.764;37.688;2024-03-22T03:06:30;6.09;75.13
79024;DHT22;70306;44.764;37.688;2024-03-22T03:08:16;6.06;74.43
79024;DHT22;70306;44.764;37.688;2024-03-22T03:09:19;6.11;74.69
79024;DHT22;70306;44.764;37.688;2024-03-22T03:10:22;6.11;74.60
79024;DHT22;70306;44.764;37.688;2024-03-22T03:11:24;6.08;74.08
79024;DHT22;70306;44.764;37.688;2024-03-22T03:12:26;6.05;73.77
79024;DHT22;70306;44.764;37.688;2024-03-22T03:13:28;6.06;74.60
79024;DHT22;70306;44.764;37.688;2024-03-22T03:14:31;6.19;75.46
79024;DHT22;70306;44.764;37.688;2024-03-22T03:15:33;6.05;73.45
79024;DHT22;70306;44.764;37.688;2024-03-22T03:16:35;5.91;74.04
79024;DHT22;70306;44.764;37.688;2024-03-22T03:17:38;5.92;74.50
79024;DHT22;70306;44.764;37.688;2024-03-22T03:18:45;5.92;74.46
79024;DHT22;70306;44.764;37.688;2024-03-22T03:19:48;5.88;74.55
79024;DHT22;70306;44.764;37.688;2024-03-22T03:20:50;5.85;74.57
79024;DHT22;70306;44.764;37.688;2024-03-22T03:22:12;5.71;74.66
79024;DHT22;70306;44.764;37.688;2024-03-22T03:23:14;5.66;75.22
79024;DHT22;70306;44.764;37.688;2024-03-22T03:24:16;5.61;75.16
79024;DHT22;70306;44.764;37.688;2024-03-22T03:25:19;5.61;75.97
79024;DHT22;70306;44.764;37.688;2024-03-22T03:26:22;5.64;75.96
79024;DHT22;70306;44.764;37.688;2024-03-22T03:27:24;5.63;75.83
79024;DHT22;70306;44.764;37.688;2024-03-22T03:28:46;5.56;75.70
79024;DHT22;70306;44.764;37.688;2024-03-22T03:29:48;5.57;76.25
79024;DHT22;70306;44.764;37.688;2024-03-22T03:30:50;5.54;75.89
79024;DHT22;70306;44.764;37.688;2024-03-22T03:31:52;5.53;75.87
79024;DHT22;70306;44.764;37.688;2024-03-22T03:32:54;5.46;76.26
79024;DHT22;70306;44.764;37.688;2024-03-22T03:33:56;5.43;76.55
79024;DHT22;70306;44.764;37.688;2024-03-22T03:34:58;5.42;76.40
79024;DHT22;70306;44.764;37.688;2024-03-22T03:36:00;5.36;76.76
79024;DHT22;70306;44.764;37.688;2024-03-22T03:37:03;5.35;76.58
79024;DHT22;70306;44.764;37.688;2024-03-22T03:38:05;5.26;76.74
79024;DHT22;70306;44.764;37.688;2024-03-22T03:39:07;5.23;76.63
79024;DHT22;70306;44.764;37.688;2024-03-22T03:40:10;5.21;77.02
79024;DHT22;70306;44.764;37.688;2024-03-22T03:41:12;5.19;77.32
79024;DHT22;70306;44.764;37.688;2024-03-22T03:42:14;5.18;77.23
79024;DHT22;70306;44.764;37.688;2024-03-22T03:43:16;5.14;77.38
79024;DHT22;70306;44.764;37.688;2024-03-22T03:44:18;5.14;77.44
79024;DHT22;70306;44.764;37.688;2024-03-22T03:45:21;5.09;77.25
79024;DHT22;70306;44.764;37.688;2024-03-22T03:46:23;5.07;77.21
79024;DHT22;70306;44.764;37.688;2024-03-22T03:47:25;5.09;77.41
79024;DHT22;70306;44.764;37.688;2024-03-22T03:48:28;5.08;77.77
79024;DHT22;70306;44.764;37.688;2024-03-22T03:49:30;5.11;77.75
79024;DHT22;70306;44.764;37.688;2024-03-22T03:50:32;5.07;77.88
79024;DHT22;70306;44.764;37.688;2024-03-22T03:51:34;5.11;77.81
79024;DHT22;70306;44.764;37.688;2024-03-22T03:52:36;5.01;77.05
79024;DHT22;70306;44.764;37.688;2024-03-22T03:53:38;5.02;77.44
79024;DHT22;70306;44.764;37.688;2024-03-22T03:54:41;4.99;77.62
79024;DHT22;70306;44.764;37.688;2024-03-22T03:55:43;5.01;77.36
79024;DHT22;70306;44.764;37.688;2024-03-22T03:56:45;4.99;77.70
79024;DHT22;70306;44.764;37.688;2024-03-22T03:57:50;5.07;77.94
79024;DHT22;70306;44.764;37.688;2024-03-22T03:58:52;5.11;78.38
79024;DHT22;70306;44.764;37.688;2024-03-22T03:59:57;5.11;77.51
79024;DHT22;70306;44.764;37.688;2024-03-22T04:00:59;5.14;77.91
79024;DHT22;70306;44.764;37.688;2024-03-22T04:02:01;5.15;77.87
79024;DHT22;70306;44.764;37.688;2024-03-22T04:03:03;5.21;77.45
79024;DHT22;70306;44.764;37.688;2024-03-22T04:04:05;5.23;77.69
79024;DHT22;70306;44.764;37.688;2024-03-22T04:05:07;5.29;77.89
79024;DHT22;70306;44.764;37.688;2024-03-22T04:06:09;5.36;77.53
79024;DHT22;70306;44.764;37.688;2024-03-22T04:07:12;5.43;77.36
79024;DHT22;70306;44.764;37.688;2024-03-22T04:08:14;5.46;77.05
79024;DHT22;70306;44.764;37.688;2024-03-22T04:09:16;5.40;77.05
79024;DHT22;70306;44.764;37.688;2024-03-22T04:10:19;5.33;77.02
79024;DHT22;70306;44.764;37.688;2024-03-22T04:11:21;5.31;77.26
79024;DHT22;70306;44.764;37.688;2024-03-22T04:12:23;5.25;77.54
79024;DHT22;70306;44.764;37.688;2024-03-22T04:13:26;5.21;77.52
79024;DHT22;70306;44.764;37.688;2024-03-22T04:14:49;5.08;77.72
79024;DHT22;70306;44.764;37.688;2024-03-22T04:15:52;5.02;77.90
79024;DHT22;70306;44.764;37.688;2024-03-22T04:16:54;4.94;78.18
79024;DHT22;70306;44.764;37.688;2024-03-22T04:17:57;4.92;78.82
79024;DHT22;70306;44.764;37.688;2024-03-22T04:18:59;4.89;79.10
79024;DHT22;70306;44.764;37.688;2024-03-22T04:20:02;4.89;79.22
79024;DHT22;70306;44.764;37.688;2024-03-22T04:21:05;4.85;79.08
79024;DHT22;70306;44.764;37.688;2024-03-22T04:22:07;4.83;78.90
79024;DHT22;70306;44.764;37.688;2024-03-22T04:23:10;4.80;79.37
79024;DHT22;70306;44.764;37.688;2024-03-22T04:24:12;4.80;79.55
79024;DHT22;70306;44.764;37.688;2024-03-22T04:25:15;4.78;79.64
79024;DHT22;70306;44.764;37.688;2024-03-22T04:26:18;4.78;79.82
79024;DHT22;70306;44.764;37.688;2024-03-22T04:27:25;4.77;78.90
79024;DHT22;70306;44.764;37.688;2024-03-22T04:28:28;4.71;78.86
79024;DHT22;70306;44.764;37.688;2024-03-22T04:29:31;4.64;79.01
79024;DHT22;70306;44.764;37.688;2024-03-22T04:30:34;4.60;79.40
79024;DHT22;70306;44.764;37.688;2024-03-22T04:31:36;4.57;79.65
79024;DHT22;70306;44.764;37.688;2024-03-22T04:32:38;4.54;79.30
79024;DHT22;70306;44.764;37.688;2024-03-22T04:33:40;4.49;79.58
79024;DHT22;70306;44.764;37.688;2024-03-22T04:34:42;4.42;80.26
79024;DHT22;70306;44.764;37.688;2024-03-22T04:35:47;4.43;80.50
79024;DHT22;70306;44.764;37.688;2024-03-22T04:36:50;4.46;80.95
79024;DHT22;70306;44.764;37.688;2024-03-22T04:37:53;4.46;80.95
79024;DHT22;70306;44.764;37.688;2024-03-22T04:38:56;4.48;81.05
79024;DHT22;70306;44.764;37.688;2024-03-22T04:39:59;4.46;80.63
79024;DHT22;70306;44.764;37.688;2024-03-22T04:41:01;4.48;81.09
79024;DHT22;70306;44.764;37.688;2024-03-22T04:42:04;4.48;81.13
79024;DHT22;70306;44.764;37.688;2024-03-22T04:43:06;4.45;80.78
79024;DHT22;70306;44.764;37.688;2024-03-22T04:44:08;4.50;81.34
79024;DHT22;70306;44.764;37.688;2024-03-22T04:45:10;4.49;81.10
79024;DHT22;70306;44.764;37.688;2024-03-22T04:46:12;4.48;80.86
79024;DHT22;70306;44.764;37.688;2024-03-22T04:47:15;4.46;79.87
79024;DHT22;70306;44.764;37.688;2024-03-22T04:48:19;4.41;80.65
79024;DHT22;70306;44.764;37.688;2024-03-22T04:49:22;4.38;80.31
79024;DHT22;70306;44.764;37.688;2024-03-22T04:50:24;4.41;80.90
79024;DHT22;70306;44.764;37.688;2024-03-22T04:51:26;4.38;80.43
79024;DHT22;70306;44.764;37.688;2024-03-22T04:52:29;4.35;80.00
79024;DHT22;70306;44.764;37.688;2024-03-22T04:53:31;4.38;81.06
79024;DHT22;70306;44.764;37.688;2024-03-22T04:54:33;4.38;81.44
79024;DHT22;70306;44.764;37.688;2024-03-22T04:55:35;4.38;81.55
79024;DHT22;70306;44.764;37.688;2024-03-22T04:56:37;4.41;81.72
79024;DHT22;70306;44.764;37.688;2024-03-22T04:57:39;4.41;81.56
79024;DHT22;70306;44.764;37.688;2024-03-22T04:58:41;4.39;81.96
79024;DHT22;70306;44.764;37.688;2024-03-22T04:59:43;4.42;81.88
79024;DHT22;70306;44.764;37.688;2024-03-22T05:00:46;4.41;82.07
79024;DHT22;70306;44.764;37.688;2024-03-22T05:01:48;4.48;82.17
79024;DHT22;70306;44.764;37.688;2024-03-22T05:02:52;4.39;81.34
79024;DHT22;70306;44.764;37.688;2024-03-22T05:03:55;4.31;80.80
79024;DHT22;70306;44.764;37.688;2024-03-22T05:04:57;4.35;81.83
79024;DHT22;70306;44.764;37.688;2024-03-22T05:05:59;4.38;82.10
79024;DHT22;70306;44.764;37.688;2024-03-22T05:07:04;4.39;82.37
79024;DHT22;70306;44.764;37.688;2024-03-22T05:08:08;4.45;82.30
79024;DHT22;70306;44.764;37.688;2024-03-22T05:09:10;4.43;82.39
79024;DHT22;70306;44.764;37.688;2024-03-22T05:10:12;4.45;82.06
79024;DHT22;70306;44.764;37.688;2024-03-22T05:11:14;4.43;82.15
79024;DHT22;70306;44.764;37.688;2024-03-22T05:12:16;4.46;81.87
79024;DHT22;70306;44.764;37.688;2024-03-22T05:13:19;4.41;81.24
79024;DHT22;70306;44.764;37.688;2024-03-22T05:14:21;4.45;81.81
79024;DHT22;70306;44.764;37.688;2024-03-22T05:15:23;4.46;81.67
79024;DHT22;70306;44.764;37.688;2024-03-22T05:16:28;4.50;81.88
79024;DHT22;70306;44.764;37.688;2024-03-22T05:17:30;4.53;81.99
79024;DHT22;70306;44.764;37.688;2024-03-22T05:18:33;4.52;81.62
79024;DHT22;70306;44.764;37.688;2024-03-22T05:19:35;4.52;81.77
79024;DHT22;70306;44.764;37.688;2024-03-22T05:20:37;4.53;81.49
79024;DHT22;70306;44.764;37.688;2024-03-22T05:21:39;4.53;81.44
79024;DHT22;70306;44.764;37.688;2024-03-22T05:22:42;4.50;80.72
79024;DHT22;70306;44.764;37.688;2024-03-22T05:23:44;4.50;80.70
79024;DHT22;70306;44.764;37.688;2024-03-22T05:24:46;4.48;80.61
79024;DHT22;70306;44.764;37.688;2024-03-22T05:25:48;4.46;80.30
79024;DHT22;70306;44.764;37.688;2024-03-22T05:26:50;4.43;80.29
79024;DHT22;70306;44.764;37.688;2024-03-22T05:27:52;4.39;80.16
79024;DHT22;70306;44.764;37.688;2024-03-22T05:28:54;4.36;80.29
79024;DHT22;70306;44.764;37.688;2024-03-22T05:29:56;4.35;80.31
79024;DHT22;70306;44.764;37.688;2024-03-22T05:30:58;4.34;80.47
79024;DHT22;70306;44.764;37.688;2024-03-22T05:32:00;4.29;80.63
79024;DHT22;70306;44.764;37.688;2024-03-22T05:33:05;4.29;81.14
79024;DHT22;70306;44.764;37.688;2024-03-22T05:34:07;4.31;80.86
79024;DHT22;70306;44.764;37.688;2024-03-22T05:35:09;4.36;81.62
79024;DHT22;70306;44.764;37.688;2024-03-22T05:36:11;4.38;81.63
79024;DHT22;70306;44.764;37.688;2024-03-22T05:37:13;4.38;81.41
79024;DHT22;70306;44.764;37.688;2024-03-22T05:38:15;4.36;81.26
79024;DHT22;70306;44.764;37.688;2024-03-22T05:39:17;4.38;81.76
79024;DHT22;70306;44.764;37.688;2024-03-22T05:40:19;4.43;81.59
79024;DHT22;70306;44.764;37.688;2024-03-22T05:41:21;4.42;81.32
79024;DHT22;70306;44.764;37.688;2024-03-22T05:42:23;4.43;81.31
79024;DHT22;70306;44.764;37.688;2024-03-22T05:43:25;4.45;81.64
79024;DHT22;70306;44.764;37.688;2024-03-22T05:44:27;4.52;82.08
79024;DHT22;70306;44.764;37.688;2024-03-22T05:45:29;4.57;81.78
79024;DHT22;70306;44.764;37.688;2024-03-22T05:46:31;4.61;81.81
79024;DHT22;70306;44.764;37.688;2024-03-22T05:47:34;4.61;81.74
79024;DHT22;70306;44.764;37.688;2024-03-22T05:48:36;4.64;81.35
79024;DHT22;70306;44.764;37.688;2024-03-22T05:49:38;4.64;81.33
79024;DHT22;70306;44.764;37.688;2024-03-22T05:50:41;4.67;81.30
79024;DHT22;70306;44.764;37.688;2024-03-22T05:51:43;4.66;80.91
79024;DHT22;70306;44.764;37.688;2024-03-22T05:52:45;4.66;80.97
79024;DHT22;70306;44.764;37.688;2024-03-22T05:53:47;4.70;81.44
79024;DHT22;70306;44.764;37.688;2024-03-22T05:54:49;4.61;80.01
79024;DHT22;70306;44.764;37.688;2024-03-22T05:55:51;4.60;80.67
79024;DHT22;70306;44.764;37.688;2024-03-22T05:56:55;4.59;80.37
79024;DHT22;70306;44.764;37.688;2024-03-22T05:57:57;4.59;80.68
79024;DHT22;70306;44.764;37.688;2024-03-22T05:58:59;4.57;80.92
79024;DHT22;70306;44.764;37.688;2024-03-22T06:00:01;4.53;80.13
79024;DHT22;70306;44.764;37.688;2024-03-22T06:01:06;4.54;80.40
79024;DHT22;70306;44.764;37.688;2024-03-22T06:02:09;4.48;79.70
79024;DHT22;70306;44.764;37.688;2024-03-22T06:03:10;4.45;80.56
79024;DHT22;70306;44.764;37.688;2024-03-22T06:04:13;4.41;80.01
79024;DHT22;70306;44.764;37.688;2024-03-22T06:05:15;4.42;81.24
79024;DHT22;70306;44.764;37.688;2024-03-22T06:06:19;4.39;80.50
79024;DHT22;70306;44.764;37.688;2024-03-22T06:07:24;4.35;80.91
79024;DHT22;70306;44.764;37.688;2024-03-22T06:08:27;4.36;81.17
79024;DHT22;70306;44.764;37.688;2024-03-22T06:09:29;4.41;81.03
79024;DHT22;70306;44.764;37.688;2024-03-22T06:10:48;4.39;81.02
79024;DHT22;70306;44.764;37.688;2024-03-22T06:11:53;4.41;81.67
79024;DHT22;70306;44.764;37.688;2024-03-22T06:12:55;4.46;82.05
79024;DHT22;70306;44.764;37.688;2024-03-22T06:13:57;4.48;81.27
79024;DHT22;70306;44.764;37.688;2024-03-22T06:15:00;4.42;80.93
79024;DHT22;70306;44.764;37.688;2024-03-22T06:16:02;4.42;81.15
79024;DHT22;70306;44.764;37.688;2024-03-22T06:17:05;4.38;81.13
79024;DHT22;70306;44.764;37.688;2024-03-22T06:18:07;4.36;81.00
79024;DHT22;70306;44.764;37.688;2024-03-22T06:19:10;4.35;81.10
79024;DHT22;70306;44.764;37.688;2024-03-22T06:20:12;4.35;81.38
79024;DHT22;70306;44.764;37.688;2024-03-22T06:21:14;4.34;81.58
79024;DHT22;70306;44.764;37.688;2024-03-22T06:22:16;4.39;82.35
79024;DHT22;70306;44.764;37.688;2024-03-22T06:23:18;4.39;81.93
79024;DHT22;70306;44.764;37.688;2024-03-22T06:24:23;4.39;81.35
79024;DHT22;70306;44.764;37.688;2024-03-22T06:25:25;4.41;81.76
79024;DHT22;70306;44.764;37.688;2024-03-22T06:26:27;4.41;81.54
79024;DHT22;70306;44.764;37.688;2024-03-22T06:27:30;4.39;81.15
79024;DHT22;70306;44.764;37.688;2024-03-22T06:28:32;4.36;80.96
79024;DHT22;70306;44.764;37.688;2024-03-22T06:29:34;4.35;80.74
79024;DHT22;70306;44.764;37.688;2024-03-22T06:30:36;4.35;81.31
79024;DHT22;70306;44.764;37.688;2024-03-22T06:31:38;4.35;81.15
79024;DHT22;70306;44.764;37.688;2024-03-22T06:32:41;4.42;81.91
79024;DHT22;70306;44.764;37.688;2024-03-22T06:33:43;4.45;81.70
79024;DHT22;70306;44.764;37.688;2024-03-22T06:34:45;4.48;81.36
79024;DHT22;70306;44.764;37.688;2024-03-22T06:35:47;4.45;81.08
79024;DHT22;70306;44.764;37.688;2024-03-22T06:36:49;4.53;82.35
79024;DHT22;70306;44.764;37.688;2024-03-22T06:37:52;4.56;81.60
79024;DHT22;70306;44.764;37.688;2024-03-22T06:38:54;4.56;81.32
79024;DHT22;70306;44.764;37.688;2024-03-22T06:39:56;4.60;81.45
79024;DHT22;70306;44.764;37.688;2024-03-22T06:41:00;4.66;81.42
79024;DHT22;70306;44.764;37.688;2024-03-22T06:42:02;4.63;80.76
79024;DHT22;70306;44.764;37.688;2024-03-22T06:43:04;4.64;80.53
79024;DHT22;70306;44.764;37.688;2024-03-22T06:44:06;4.60;80.79
79024;DHT22;70306;44.764;37.688;2024-03-22T06:45:11;4.64;81.34
79024;DHT22;70306;44.764;37.688;2024-03-22T06:46:14;4.69;81.02
79024;DHT22;70306;44.764;37.688;2024-03-22T06:47:17;4.64;81.01
79024;DHT22;70306;44.764;37.688;2024-03-22T06:48:19;4.67;81.14
79024;DHT22;70306;44.764;37.688;2024-03-22T06:49:21;4.66;80.58
79024;DHT22;70306;44.764;37.688;2024-03-22T06:50:23;4.69;81.36